Station Historical Data
Daily Summary for March 3, 2018 Units:  English    Metric   Both
« Previous Day
Next Day »
Daily Weekly Monthly Yearly Custom
  High: Low: Average:
Temperature: 35.5 °F 23.5 °F 30.1 °F
Dew Point: 24.9 °F 18.1 °F 21.9 °F
Humidity: 81% 61% 71%
Wind Speed: 11.0mph 0.0mph 3.1mph
Wind Gust: 14.0mph - -
Wind- - NW
Pressure: 30.44 in 30.30 in -
Precipitation: 0.00 in    
Historical Graphs
 
 
Tabular Data for March 3, 2018
Time Temperature Dew Point Pressure Wind Wind Speed Wind Gust Humidity Rainfall Rate (Hourly)
00:04 29.8 °F 21.2 °F 30.30 in NW 2.0 mph 11.0 mph 70% 0.00 in
00:09 29.9 °F 21.3 °F 30.30 in NW 2.0 mph 6.0 mph 70% 0.00 in
00:14 29.8 °F 21.5 °F 30.31 in North 3.0 mph 7.0 mph 71% 0.00 in
00:19 29.8 °F 21.5 °F 30.31 in NNW 4.0 mph 8.0 mph 71% 0.00 in
00:24 29.8 °F 21.5 °F 30.31 in NNW 2.0 mph 4.0 mph 71% 0.00 in
00:29 29.8 °F 21.5 °F 30.31 in North 2.0 mph 9.0 mph 71% 0.00 in
00:34 29.8 °F 21.5 °F 30.31 in NW 5.0 mph 7.0 mph 71% 0.00 in
00:39 29.8 °F 21.5 °F 30.30 in NW 4.0 mph 8.0 mph 71% 0.00 in
00:44 29.8 °F 21.5 °F 30.31 in NNW 3.0 mph 7.0 mph 71% 0.00 in
00:49 29.8 °F 21.5 °F 30.31 in NNW 3.0 mph 7.0 mph 71% 0.00 in
00:54 29.8 °F 21.9 °F 30.31 in NNW 3.0 mph 7.0 mph 72% 0.00 in
00:59 29.8 °F 21.9 °F 30.31 in NNW 3.0 mph 6.0 mph 72% 0.00 in
01:04 29.8 °F 21.5 °F 30.31 in NNW 2.0 mph 8.0 mph 71% 0.00 in
01:09 29.8 °F 21.5 °F 30.31 in NNW 6.0 mph 7.0 mph 71% 0.00 in
01:14 29.8 °F 21.5 °F 30.31 in NNW 2.0 mph 8.0 mph 71% 0.00 in
01:19 29.9 °F 21.6 °F 30.31 in North 2.0 mph 7.0 mph 71% 0.00 in
01:24 29.8 °F 21.5 °F 30.31 in NW 2.0 mph 6.0 mph 71% 0.00 in
01:29 29.8 °F 21.5 °F 30.31 in NNW 4.0 mph 6.0 mph 71% 0.00 in
01:34 29.7 °F 21.8 °F 30.31 in NNW 3.0 mph 6.0 mph 72% 0.00 in
01:39 29.7 °F 21.8 °F 30.31 in NNW 2.0 mph 9.0 mph 72% 0.00 in
01:44 29.7 °F 21.8 °F 30.32 in NW 4.0 mph 5.0 mph 72% 0.00 in
01:49 29.7 °F 21.8 °F 30.32 in NNW 2.0 mph 7.0 mph 72% 0.00 in
01:54 29.7 °F 21.8 °F 30.32 in NNW 3.0 mph 7.0 mph 72% 0.00 in
01:59 29.8 °F 21.5 °F 30.32 in NNW 3.0 mph 9.0 mph 71% 0.00 in
02:04 29.8 °F 21.5 °F 30.32 in NNW 3.0 mph 9.0 mph 71% 0.00 in
02:09 29.7 °F 21.4 °F 30.32 in NW 3.0 mph 7.0 mph 71% 0.00 in
02:14 29.7 °F 21.8 °F 30.32 in NNW 4.0 mph 6.0 mph 72% 0.00 in
02:19 29.6 °F 21.7 °F 30.32 in NNW 3.0 mph 9.0 mph 72% 0.00 in
02:24 29.6 °F 21.7 °F 30.33 in NW 4.0 mph 6.0 mph 72% 0.00 in
02:29 29.5 °F 21.6 °F 30.33 in NNW 3.0 mph 6.0 mph 72% 0.00 in
02:34 29.5 °F 21.6 °F 30.33 in NNW 3.0 mph 7.0 mph 72% 0.00 in
02:39 29.6 °F 21.7 °F 30.33 in NNW 4.0 mph 8.0 mph 72% 0.00 in
02:44 29.5 °F 21.6 °F 30.33 in NNW 3.0 mph 8.0 mph 72% 0.00 in
02:49 29.5 °F 21.6 °F 30.33 in NNW 3.0 mph 8.0 mph 72% 0.00 in
02:54 29.6 °F 21.7 °F 30.33 in NNW 4.0 mph 8.0 mph 72% 0.00 in
02:59 29.6 °F 21.7 °F 30.33 in NW 5.0 mph 9.0 mph 72% 0.00 in
03:04 29.6 °F 21.7 °F 30.34 in NNW 4.0 mph 7.0 mph 72% 0.00 in
03:09 29.6 °F 21.7 °F 30.34 in NNW 4.0 mph 10.0 mph 72% 0.00 in
03:14 29.5 °F 21.6 °F 30.34 in NNW 4.0 mph 10.0 mph 72% 0.00 in
03:19 29.5 °F 21.6 °F 30.34 in NNE 4.0 mph 6.0 mph 72% 0.00 in
03:24 29.5 °F 21.6 °F 30.34 in NW 1.0 mph 5.0 mph 72% 0.00 in
03:29 29.4 °F 21.5 °F 30.34 in NW 3.0 mph 7.0 mph 72% 0.00 in
03:34 29.2 °F 21.3 °F 30.34 in WNW 4.0 mph 6.0 mph 72% 0.00 in
03:39 29.0 °F 21.1 °F 30.34 in NW 4.0 mph 5.0 mph 72% 0.00 in
03:44 28.7 °F 21.1 °F 30.35 in NW 2.0 mph 5.0 mph 73% 0.00 in
03:49 28.3 °F 20.7 °F 30.34 in NW 2.0 mph 5.0 mph 73% 0.00 in
03:54 27.9 °F 20.4 °F 30.35 in NW 1.0 mph 4.0 mph 73% 0.00 in
03:59 27.5 °F 20.3 °F 30.35 in NW 1.0 mph 4.0 mph 74% 0.00 in
04:04 27.2 °F 20.0 °F 30.35 in NW 2.0 mph 4.0 mph 74% 0.00 in
04:09 26.9 °F 20.0 °F 30.35 in NW 2.0 mph 4.0 mph 75% 0.00 in
04:19 26.8 °F 20.2 °F 30.35 in NW 2.0 mph 4.0 mph 76% 0.00 in
04:24 26.8 °F 20.2 °F 30.35 in NW 2.0 mph 4.0 mph 76% 0.00 in
04:29 26.7 °F 20.1 °F 30.35 in NW 2.0 mph 5.0 mph 76% 0.00 in
04:34 26.7 °F 20.1 °F 30.35 in Calm   3.0 mph 76% 0.00 in
04:39 26.6 °F 20.1 °F 30.35 in NW 1.0 mph 3.0 mph 76% 0.00 in
04:44 26.4 °F 19.9 °F 30.35 in WNW 4.0 mph 5.0 mph 76% 0.00 in
04:49 26.3 °F 19.8 °F 30.35 in NW 4.0 mph 6.0 mph 76% 0.00 in
04:54 26.1 °F 19.6 °F 30.35 in NW 2.0 mph 6.0 mph 76% 0.00 in
04:59 26.0 °F 19.8 °F 30.36 in NW 2.0 mph 8.0 mph 77% 0.00 in
05:04 25.9 °F 19.7 °F 30.36 in NW 2.0 mph 5.0 mph 77% 0.00 in
05:09 25.8 °F 19.6 °F 30.36 in NW 2.0 mph 5.0 mph 77% 0.00 in
05:14 25.6 °F 19.4 °F 30.36 in NW 2.0 mph 5.0 mph 77% 0.00 in
05:19 25.4 °F 19.2 °F 30.36 in NW 2.0 mph 4.0 mph 77% 0.00 in
05:24 25.3 °F 19.1 °F 30.36 in NW 3.0 mph 5.0 mph 77% 0.00 in
05:29 25.3 °F 19.1 °F 30.36 in NW 2.0 mph 5.0 mph 77% 0.00 in
05:34 25.2 °F 19.3 °F 30.36 in NW 2.0 mph 4.0 mph 78% 0.00 in
05:39 25.2 °F 19.3 °F 30.36 in NW 2.0 mph 6.0 mph 78% 0.00 in
05:44 25.1 °F 19.2 °F 30.36 in NW 2.0 mph 4.0 mph 78% 0.00 in
05:49 25.0 °F 19.1 °F 30.37 in NW 1.0 mph 2.0 mph 78% 0.00 in
05:54 24.8 °F 18.6 °F 30.36 in Calm   3.0 mph 77% 0.00 in
05:59 24.3 °F 18.4 °F 30.37 in Calm   3.0 mph 78% 0.00 in
06:04 24.2 °F 18.3 °F 30.37 in Calm   3.0 mph 78% 0.00 in
06:09 24.2 °F 18.6 °F 30.37 in NW 1.0 mph 4.0 mph 79% 0.00 in
06:14 24.1 °F 18.5 °F 30.37 in NW 1.0 mph 4.0 mph 79% 0.00 in
06:19 24.1 °F 18.5 °F 30.37 in NW 1.0 mph 3.0 mph 79% 0.00 in
06:24 24.0 °F 18.4 °F 30.38 in NW 1.0 mph 3.0 mph 79% 0.00 in
06:29 24.0 °F 18.4 °F 30.37 in NW 2.0 mph 5.0 mph 79% 0.00 in
06:34 23.8 °F 18.2 °F 30.37 in NW 1.0 mph 5.0 mph 79% 0.00 in
06:39 23.7 °F 18.1 °F 30.37 in Calm   3.0 mph 79% 0.00 in
06:44 23.7 °F 18.4 °F 30.37 in Calm   2.0 mph 80% 0.00 in
06:49 23.6 °F 18.3 °F 30.38 in Calm     80% 0.00 in
06:54 23.5 °F 18.2 °F 30.37 in WNW 1.0 mph 5.0 mph 80% 0.00 in
06:59 23.5 °F 18.2 °F 30.38 in Calm   4.0 mph 80% 0.00 in
07:04 23.6 °F 18.3 °F 30.38 in Calm   2.0 mph 80% 0.00 in
07:09 23.5 °F 18.2 °F 30.38 in NW 1.0 mph 3.0 mph 80% 0.00 in
07:14 23.7 °F 18.4 °F 30.38 in NW 1.0 mph 3.0 mph 80% 0.00 in
07:19 24.1 °F 19.1 °F 30.38 in NW 1.0 mph 3.0 mph 81% 0.00 in
07:24 24.6 °F 19.6 °F 30.39 in NW 1.0 mph 3.0 mph 81% 0.00 in
07:29 25.2 °F 20.2 °F 30.39 in NW 1.0 mph 3.0 mph 81% 0.00 in
07:34 25.6 °F 20.3 °F 30.39 in NW 1.0 mph 3.0 mph 80% 0.00 in
07:39 26.0 °F 20.4 °F 30.39 in NW 1.0 mph 2.0 mph 79% 0.00 in
07:44 26.3 °F 20.7 °F 30.39 in NW 2.0 mph 4.0 mph 79% 0.00 in
07:49 26.7 °F 20.8 °F 30.39 in NW 2.0 mph 4.0 mph 78% 0.00 in
07:54 27.0 °F 21.1 °F 30.39 in Calm   4.0 mph 78% 0.00 in
07:59 27.4 °F 21.4 °F 30.40 in Calm   4.0 mph 78% 0.00 in
08:04 27.8 °F 21.5 °F 30.40 in Calm   4.0 mph 77% 0.00 in
08:09 28.1 °F 21.5 °F 30.40 in NW 1.0 mph 3.0 mph 76% 0.00 in
08:14 28.3 °F 21.7 °F 30.40 in NW 3.0 mph 7.0 mph 76% 0.00 in
08:19 28.5 °F 21.9 °F 30.40 in NW 3.0 mph 7.0 mph 76% 0.00 in
08:24 29.0 °F 22.1 °F 30.40 in WNW 3.0 mph 6.0 mph 75% 0.00 in
08:29 29.2 °F 22.3 °F 30.40 in NW 2.0 mph 6.0 mph 75% 0.00 in
08:34 29.2 °F 22.3 °F 30.40 in NW 3.0 mph 6.0 mph 75% 0.00 in
08:39 29.3 °F 22.0 °F 30.40 in NW 4.0 mph 7.0 mph 74% 0.00 in
08:44 29.3 °F 22.0 °F 30.40 in WNW 2.0 mph 7.0 mph 74% 0.00 in
08:49 29.6 °F 22.3 °F 30.40 in NW 1.0 mph 8.0 mph 74% 0.00 in
08:54 29.8 °F 22.5 °F 30.41 in NW 3.0 mph 8.0 mph 74% 0.00 in
08:59 30.1 °F 22.8 °F 30.41 in NW 3.0 mph 9.0 mph 74% 0.00 in
09:04 30.1 °F 22.8 °F 30.41 in NNW 4.0 mph 9.0 mph 74% 0.00 in
09:09 30.4 °F 22.8 °F 30.41 in NNW 4.0 mph 9.0 mph 73% 0.00 in
09:14 30.5 °F 22.9 °F 30.41 in North 4.0 mph 6.0 mph 73% 0.00 in
09:19 30.7 °F 23.1 °F 30.41 in NNW 3.0 mph 9.0 mph 73% 0.00 in
09:24 30.9 °F 23.3 °F 30.41 in NW 3.0 mph 6.0 mph 73% 0.00 in
09:29 31.2 °F 23.5 °F 30.41 in NW 4.0 mph 8.0 mph 73% 0.00 in
09:34 31.2 °F 23.5 °F 30.41 in NW 5.0 mph 7.0 mph 73% 0.00 in
09:39 31.2 °F 23.5 °F 30.41 in NW 4.0 mph 9.0 mph 73% 0.00 in
09:44 31.1 °F 23.5 °F 30.41 in NW 4.0 mph 9.0 mph 73% 0.00 in
09:49 31.4 °F 23.7 °F 30.41 in NW 4.0 mph 9.0 mph 73% 0.00 in
09:54 31.6 °F 23.9 °F 30.41 in North 9.0 mph 10.0 mph 73% 0.00 in
09:59 31.5 °F 23.5 °F 30.42 in WNW 11.0 mph 13.0 mph 72% 0.00 in
10:04 31.5 °F 23.5 °F 30.42 in NNW 6.0 mph 13.0 mph 72% 0.00 in
10:09 31.6 °F 23.3 °F 30.42 in North 4.0 mph 11.0 mph 71% 0.01 in
10:14 31.5 °F 23.2 °F 30.42 in NW 8.0 mph 13.0 mph 71% 0.01 in
10:19 31.6 °F 23.3 °F 30.42 in NW 5.0 mph 13.0 mph 71% 0.01 in
10:24 31.6 °F 23.3 °F 30.42 in NW 8.0 mph 11.0 mph 71% 0.01 in
10:29 31.5 °F 23.2 °F 30.42 in NNW 6.0 mph 14.0 mph 71% 0.01 in
10:34 31.5 °F 22.8 °F 30.42 in NNW 5.0 mph 11.0 mph 70% 0.01 in
10:39 31.4 °F 22.7 °F 30.42 in NNW 6.0 mph 12.0 mph 70% 0.01 in
10:44 31.7 °F 23.0 °F 30.42 in NNW 6.0 mph 13.0 mph 70% 0.01 in
10:49 31.9 °F 23.2 °F 30.42 in NNW 5.0 mph 13.0 mph 70% 0.01 in
10:54 31.9 °F 22.9 °F 30.42 in North 5.0 mph 13.0 mph 69% 0.01 in
10:59 31.9 °F 23.2 °F 30.42 in North 6.0 mph 12.0 mph 70% 0.01 in
11:04 32.1 °F 23.1 °F 30.42 in NNW 6.0 mph 12.0 mph 69% 0.01 in
11:09 31.9 °F 22.9 °F 30.42 in NNE 7.0 mph 13.0 mph 69% 0.00 in
11:14 32.0 °F 23.0 °F 30.42 in NNW 3.0 mph 10.0 mph 69% 0.00 in
11:19 32.2 °F 23.2 °F 30.42 in North 6.0 mph 10.0 mph 69% 0.00 in
11:24 32.2 °F 22.8 °F 30.42 in NNW 2.0 mph 13.0 mph 68% 0.00 in
11:29 32.4 °F 23.4 °F 30.42 in NNW 10.0 mph 13.0 mph 69% 0.00 in
11:34 32.7 °F 23.3 °F 30.42 in North 7.0 mph 10.0 mph 68% 0.00 in
11:39 32.6 °F 23.2 °F 30.42 in North 4.0 mph 10.0 mph 68% 0.00 in
11:44 32.8 °F 23.4 °F 30.43 in WNW 7.0 mph 9.0 mph 68% 0.00 in
11:49 33.2 °F 23.8 °F 30.43 in NW 5.0 mph 12.0 mph 68% 0.00 in
11:54 33.1 °F 23.3 °F 30.43 in NNW 5.0 mph 12.0 mph 67% 0.00 in
11:59 33.3 °F 23.9 °F 30.42 in NNW 6.0 mph 11.0 mph 68% 0.00 in
12:04 33.4 °F 24.0 °F 30.43 in NW 6.0 mph 11.0 mph 68% 0.00 in
12:09 33.5 °F 23.7 °F 30.43 in NNW 5.0 mph 10.0 mph 67% 0.00 in
12:14 33.7 °F 23.9 °F 30.43 in North 6.0 mph 9.0 mph 67% 0.00 in
12:19 33.6 °F 23.4 °F 30.43 in North 3.0 mph 11.0 mph 66% 0.00 in
12:24 33.8 °F 23.6 °F 30.43 in NW 2.0 mph 10.0 mph 66% 0.00 in
12:29 34.0 °F 23.8 °F 30.43 in WNW 5.0 mph 9.0 mph 66% 0.00 in
12:34 33.9 °F 23.7 °F 30.43 in NNW 4.0 mph 11.0 mph 66% 0.00 in
12:39 34.1 °F 23.9 °F 30.43 in NNW 4.0 mph 9.0 mph 66% 0.00 in
12:44 34.3 °F 24.1 °F 30.42 in NNW 5.0 mph 10.0 mph 66% 0.00 in
12:49 34.5 °F 23.9 °F 30.42 in North 9.0 mph 10.0 mph 65% 0.01 in
12:54 34.5 °F 23.9 °F 30.42 in North 4.0 mph 11.0 mph 65% 0.01 in
12:59 34.6 °F 24.0 °F 30.42 in NNW 5.0 mph 11.0 mph 65% 0.01 in
13:04 35.5 °F 24.9 °F 30.42 in NW 4.0 mph 10.0 mph 65% 0.01 in
13:09 35.3 °F 24.0 °F 30.42 in NNW 4.0 mph 10.0 mph 63% 0.02 in
13:14 34.3 °F 23.4 °F 30.42 in NNW 5.0 mph 14.0 mph 64% 0.02 in
13:19 34.2 °F 23.7 °F 30.42 in NNW 3.0 mph 7.0 mph 65% 0.02 in
13:24 34.1 °F 23.6 °F 30.42 in NNW 5.0 mph 9.0 mph 65% 0.03 in
13:29 33.9 °F 23.4 °F 30.42 in WNW 3.0 mph 9.0 mph 65% 0.03 in
13:34 33.8 °F 22.9 °F 30.42 in NNW 4.0 mph 10.0 mph 64% 0.03 in
13:39 33.8 °F 23.6 °F 30.42 in NNW 4.0 mph 10.0 mph 66% 0.03 in
13:44 33.9 °F 23.4 °F 30.42 in NNW 5.0 mph 10.0 mph 65% 0.03 in
13:49 34.0 °F 23.5 °F 30.42 in NNW 5.0 mph 10.0 mph 65% 0.03 in
13:54 34.3 °F 23.7 °F 30.41 in NNE 4.0 mph 7.0 mph 65% 0.03 in
13:59 34.2 °F 23.7 °F 30.42 in NW 5.0 mph 6.0 mph 65% 0.03 in
14:04 34.4 °F 23.8 °F 30.42 in NNW 3.0 mph 6.0 mph 65% 0.03 in
14:09 34.1 °F 23.2 °F 30.42 in NNW 2.0 mph 8.0 mph 64% 0.02 in
14:14 34.1 °F 22.8 °F 30.42 in NNW 7.0 mph 9.0 mph 63% 0.02 in
14:19 34.3 °F 23.4 °F 30.42 in NW 4.0 mph 7.0 mph 64% 0.03 in
14:24 34.3 °F 23.4 °F 30.42 in WNW 2.0 mph 8.0 mph 64% 0.02 in
14:29 34.4 °F 23.5 °F 30.41 in North 7.0 mph 7.0 mph 64% 0.02 in
14:34 34.3 °F 23.0 °F 30.42 in NNW 6.0 mph 9.0 mph 63% 0.02 in
14:39 34.3 °F 23.4 °F 30.42 in NNW 4.0 mph 7.0 mph 64% 0.02 in
14:44 34.4 °F 23.5 °F 30.41 in NNW 5.0 mph 10.0 mph 64% 0.02 in
14:49 34.4 °F 23.5 °F 30.41 in NNW 4.0 mph 10.0 mph 64% 0.01 in
14:54 34.7 °F 23.8 °F 30.41 in NNW 4.0 mph 8.0 mph 64% 0.02 in
14:59 34.8 °F 23.9 °F 30.41 in NNW 4.0 mph 8.0 mph 64% 0.02 in
15:04 34.4 °F 23.1 °F 30.42 in NNW 4.0 mph 12.0 mph 63% 0.02 in
15:09 34.1 °F 23.6 °F 30.41 in NNW 3.0 mph 10.0 mph 65% 0.02 in
15:14 33.9 °F 23.0 °F 30.41 in NNW 4.0 mph 10.0 mph 64% 0.02 in
15:24 34.8 °F 23.5 °F 30.41 in NNW 4.0 mph 10.0 mph 63% 0.01 in
15:29 34.4 °F 23.1 °F 30.41 in NW 5.0 mph 9.0 mph 63% 0.01 in
15:34 34.7 °F 23.4 °F 30.41 in NW 2.0 mph 8.0 mph 63% 0.01 in
15:39 34.8 °F 23.5 °F 30.41 in NW 1.0 mph 9.0 mph 63% 0.01 in
15:44 34.7 °F 23.4 °F 30.41 in NW 3.0 mph 9.0 mph 63% 0.01 in
15:49 34.4 °F 23.1 °F 30.41 in NW 4.0 mph 8.0 mph 63% 0.01 in
15:59 34.3 °F 23.0 °F 30.41 in NW 4.0 mph 8.0 mph 63% 0.01 in
16:04 34.3 °F 23.0 °F 30.41 in NNW 5.0 mph 7.0 mph 63% 0.01 in
16:09 34.2 °F 22.5 °F 30.41 in NW 4.0 mph 10.0 mph 62% 0.01 in
16:14 34.1 °F 22.8 °F 30.41 in NW 5.0 mph 10.0 mph 63% 0.01 in
16:19 34.0 °F 22.7 °F 30.41 in NW 4.0 mph 11.0 mph 63% 0.01 in
16:24 33.8 °F 22.5 °F 30.42 in NNW 4.0 mph 11.0 mph 63% 0.01 in
16:34 34.3 °F 23.0 °F 30.42 in NW 3.0 mph 9.0 mph 63% 0.01 in
16:39 34.6 °F 22.9 °F 30.42 in NW 4.0 mph 9.0 mph 62% 0.01 in
16:44 35.1 °F 23.4 °F 30.42 in NW 5.0 mph 6.0 mph 62% 0.01 in
16:49 35.1 °F 23.0 °F 30.42 in NNW 3.0 mph 8.0 mph 61% 0.01 in
16:54 35.0 °F 23.3 °F 30.42 in NNW 1.0 mph 6.0 mph 62% 0.00 in
16:59 35.0 °F 23.3 °F 30.42 in NNW 3.0 mph 7.0 mph 62% 0.00 in
17:04 34.8 °F 23.1 °F 30.42 in NW 3.0 mph 8.0 mph 62% 0.00 in
17:09 34.6 °F 22.9 °F 30.42 in NW 3.0 mph 8.0 mph 62% 0.00 in
17:14 34.4 °F 23.1 °F 30.41 in NW 6.0 mph 9.0 mph 63% 0.00 in
17:19 34.4 °F 22.7 °F 30.41 in NW 2.0 mph 7.0 mph 62% 0.00 in
17:24 34.4 °F 22.7 °F 30.41 in WNW 3.0 mph 8.0 mph 62% 0.00 in
17:29 34.3 °F 23.0 °F 30.41 in NW 1.0 mph 4.0 mph 63% 0.00 in
17:34 34.3 °F 23.0 °F 30.41 in NW 2.0 mph 6.0 mph 63% 0.00 in
17:39 34.1 °F 22.4 °F 30.41 in NW 3.0 mph 8.0 mph 62% 0.00 in
17:44 33.9 °F 22.6 °F 30.42 in NNW 1.0 mph 6.0 mph 63% 0.00 in
17:49 33.7 °F 22.4 °F 30.42 in NW 1.0 mph 5.0 mph 63% 0.00 in
17:54 33.4 °F 22.5 °F 30.42 in NW 1.0 mph 4.0 mph 64% 0.00 in
17:59 33.2 °F 22.3 °F 30.42 in NW 1.0 mph 4.0 mph 64% 0.00 in
18:04 32.8 °F 22.3 °F 30.42 in Calm   5.0 mph 65% 0.00 in
18:09 32.6 °F 22.1 °F 30.42 in NW 1.0 mph 5.0 mph 65% 0.00 in
18:14 32.4 °F 22.3 °F 30.42 in WNW 2.0 mph 4.0 mph 66% 0.00 in
18:19 32.1 °F 22.0 °F 30.42 in WNW 2.0 mph 4.0 mph 66% 0.00 in
18:24 31.8 °F 22.1 °F 30.42 in West 2.0 mph 4.0 mph 67% 0.00 in
18:29 31.6 °F 21.9 °F 30.42 in WNW 2.0 mph 5.0 mph 67% 0.00 in
18:34 31.5 °F 22.1 °F 30.42 in WNW 2.0 mph 5.0 mph 68% 0.00 in
18:39 31.4 °F 22.1 °F 30.42 in WNW 2.0 mph 4.0 mph 68% 0.00 in
18:44 31.2 °F 22.2 °F 30.42 in WNW 2.0 mph 5.0 mph 69% 0.00 in
18:49 31.0 °F 22.0 °F 30.43 in West 2.0 mph 5.0 mph 69% 0.00 in
18:54 30.8 °F 21.8 °F 30.43 in West 4.0 mph 5.0 mph 69% 0.00 in
18:59 30.6 °F 22.0 °F 30.43 in West 5.0 mph 5.0 mph 70% 0.00 in
19:04 30.6 °F 22.0 °F 30.43 in West 1.0 mph 5.0 mph 70% 0.00 in
19:09 30.5 °F 22.2 °F 30.43 in West 4.0 mph 6.0 mph 71% 0.00 in
19:14 30.4 °F 22.1 °F 30.43 in West 4.0 mph 6.0 mph 71% 0.00 in
19:19 30.3 °F 22.0 °F 30.42 in West 3.0 mph 6.0 mph 71% 0.00 in
19:24 30.4 °F 22.4 °F 30.42 in West 3.0 mph 8.0 mph 72% 0.00 in
19:29 30.6 °F 23.0 °F 30.42 in WNW 3.0 mph 8.0 mph 73% 0.00 in
19:34 30.5 °F 22.9 °F 30.42 in WNW 3.0 mph 7.0 mph 73% 0.00 in
19:39 30.5 °F 22.9 °F 30.43 in WNW 3.0 mph 7.0 mph 73% 0.00 in
19:44 30.5 °F 23.2 °F 30.43 in WNW 3.0 mph 7.0 mph 74% 0.00 in
19:49 30.3 °F 23.0 °F 30.43 in WNW 1.0 mph 4.0 mph 74% 0.00 in
19:54 30.3 °F 23.0 °F 30.43 in WNW 3.0 mph 6.0 mph 74% 0.00 in
19:59 30.0 °F 22.7 °F 30.44 in West 1.0 mph 4.0 mph 74% 0.00 in
20:04 29.9 °F 22.6 °F 30.44 in WNW 2.0 mph 6.0 mph 74% 0.00 in
20:09 29.9 °F 22.6 °F 30.44 in Calm   8.0 mph 74% 0.00 in
20:14 29.9 °F 22.6 °F 30.44 in NW 3.0 mph 7.0 mph 74% 0.00 in
20:19 29.9 °F 22.9 °F 30.44 in NW 1.0 mph 8.0 mph 75% 0.00 in
20:24 29.8 °F 22.5 °F 30.44 in NW 6.0 mph 6.0 mph 74% 0.00 in
20:29 29.8 °F 22.8 °F 30.44 in NW 3.0 mph 11.0 mph 75% 0.00 in
20:34 29.9 °F 22.9 °F 30.44 in NW 3.0 mph 11.0 mph 75% 0.00 in
20:39 29.9 °F 22.9 °F 30.44 in NW 4.0 mph 9.0 mph 75% 0.00 in
20:44 29.9 °F 22.9 °F 30.44 in NW 4.0 mph 10.0 mph 75% 0.00 in
20:49 29.8 °F 22.8 °F 30.44 in NNW 4.0 mph 10.0 mph 75% 0.00 in
20:54 29.6 °F 22.6 °F 30.44 in NW 3.0 mph 7.0 mph 75% 0.00 in
20:59 29.6 °F 22.6 °F 30.44 in NW 4.0 mph 6.0 mph 75% 0.00 in
21:04 29.5 °F 22.6 °F 30.44 in NNW 2.0 mph 8.0 mph 75% 0.00 in
21:09 29.4 °F 22.5 °F 30.44 in NNW 3.0 mph 8.0 mph 75% 0.00 in
21:14 29.4 °F 22.1 °F 30.44 in NNW 4.0 mph 12.0 mph 74% 0.00 in
21:19 29.3 °F 22.4 °F 30.44 in NNW 4.0 mph 8.0 mph 75% 0.00 in
21:24 29.3 °F 22.0 °F 30.44 in NW 2.0 mph 8.0 mph 74% 0.00 in
21:29 29.0 °F 21.7 °F 30.44 in NNW 2.0 mph 6.0 mph 74% 0.00 in
21:34 29.0 °F 21.7 °F 30.44 in NNW 4.0 mph 6.0 mph 74% 0.00 in
21:39 28.8 °F 21.6 °F 30.44 in NNW 3.0 mph 7.0 mph 74% 0.00 in
21:44 28.7 °F 21.8 °F 30.44 in NNW 3.0 mph 7.0 mph 75% 0.00 in
21:49 28.5 °F 21.6 °F 30.44 in NNW 3.0 mph 7.0 mph 75% 0.00 in
21:54 28.5 °F 21.6 °F 30.44 in NNW 3.0 mph 6.0 mph 75% 0.00 in
21:59 28.5 °F 21.6 °F 30.44 in NNW 3.0 mph 7.0 mph 75% 0.00 in
22:04 28.4 °F 21.5 °F 30.44 in NNW 3.0 mph 8.0 mph 75% 0.00 in
22:09 28.1 °F 21.2 °F 30.44 in NW 4.0 mph 4.0 mph 75% 0.00 in
22:14 28.0 °F 21.1 °F 30.44 in NW 3.0 mph 6.0 mph 75% 0.00 in
22:19 28.0 °F 21.4 °F 30.44 in NNW 3.0 mph 7.0 mph 76% 0.00 in
22:24 27.9 °F 21.3 °F 30.44 in NW 3.0 mph 5.0 mph 76% 0.00 in
22:29 27.8 °F 21.2 °F 30.44 in NNW 3.0 mph 5.0 mph 76% 0.00 in
22:34 27.6 °F 21.0 °F 30.44 in NW 2.0 mph 4.0 mph 76% 0.00 in
22:39 27.5 °F 20.9 °F 30.44 in NNW 1.0 mph 6.0 mph 76% 0.00 in
22:44 27.4 °F 20.8 °F 30.44 in NW 3.0 mph 5.0 mph 76% 0.00 in
22:49 27.2 °F 20.6 °F 30.44 in NW 3.0 mph 6.0 mph 76% 0.00 in
22:54 27.0 °F 20.4 °F 30.44 in NW 2.0 mph 6.0 mph 76% 0.00 in
22:59 26.9 °F 20.7 °F 30.44 in NW 2.0 mph 8.0 mph 77% 0.00 in
23:04 27.0 °F 20.7 °F 30.44 in NW 2.0 mph 8.0 mph 77% 0.00 in
23:09 26.9 °F 20.7 °F 30.44 in NW 2.0 mph 5.0 mph 77% 0.00 in
23:14 26.8 °F 20.6 °F 30.44 in NNW 1.0 mph 5.0 mph 77% 0.00 in
23:19 26.7 °F 20.5 °F 30.44 in NW 3.0 mph 4.0 mph 77% 0.00 in
23:24 26.5 °F 20.3 °F 30.44 in NW 2.0 mph 4.0 mph 77% 0.00 in
23:29 26.0 °F 19.8 °F 30.44 in NW 1.0 mph 4.0 mph 77% 0.00 in
23:34 25.6 °F 19.7 °F 30.44 in NW 2.0 mph 4.0 mph 78% 0.00 in
23:39 25.5 °F 19.6 °F 30.44 in NW 2.0 mph 4.0 mph 78% 0.00 in
23:44 25.3 °F 19.7 °F 30.44 in Calm   3.0 mph 79% 0.00 in
23:49 25.1 °F 19.5 °F 30.44 in Calm   2.0 mph 79% 0.00 in
23:54 24.8 °F 19.2 °F 30.44 in Calm     79% 0.00 in
23:59 24.9 °F 19.6 °F 30.44 in Calm   2.0 mph 80% 0.00 in
Buffalo, New York, USA
Compliments of Weather Underground - 2.5 mb